Time;durP1;ratioP1;P1;durP2;ratioP2;P2;SDS_P1;SDS_P2;PMS_P1;PMS_P2;Temp;Humidity;BMP_temperature;BMP_pressure;BME280_temperature;BME280_humidity;BME280_pressure;Samples;Min_cycle;Max_cycle;Signal;HPM_P1;HPM_P2
2022/11/10 00:00:48;;;;;;;6.90;4.73;;;10.60;99.90;;;;;;2616687;54;20509;-78
2022/11/10 00:06:35;;;;;;;12.13;5.03;;;10.70;99.90;;;;;;2616373;54;20147;-78
2022/11/10 00:12:23;;;;;;;5.37;4.30;;;10.40;99.90;;;;;;2615696;54;20135;-78
2022/11/10 00:21:52;;;;;;;8.33;4.37;;;10.40;99.90;;;;;;2616156;54;20495;-77
2022/11/10 00:27:39;;;;;;;7.67;5.20;;;10.20;99.90;;;;;;2616027;54;20392;-78
2022/11/10 00:33:27;;;;;;;6.17;4.47;;;10.20;99.90;;;;;;2617072;39;20338;-77
2022/11/10 00:39:15;;;;;;;10.33;4.57;;;10.20;99.90;;;;;;2616664;39;20586;-78
2022/11/10 00:45:03;;;;;;;9.47;4.10;;;10.20;99.90;;;;;;2616125;54;20159;-77
2022/11/10 00:50:51;;;;;;;10.53;5.47;;;10.20;99.90;;;;;;2614969;54;20532;-77
2022/11/10 00:56:39;;;;;;;11.57;5.07;;;10.30;99.90;;;;;;2615961;54;20398;-78
2022/11/10 01:02:27;;;;;;;7.30;4.50;;;10.20;99.90;;;;;;2616238;54;20158;-77
2022/11/10 01:08:15;;;;;;;11.37;4.80;;;10.20;99.90;;;;;;2615629;54;20363;-78
2022/11/10 01:14:03;;;;;;;5.40;3.90;;;10.20;99.90;;;;;;2616124;54;20226;-78
2022/11/10 01:19:50;;;;;;;16.90;4.77;;;10.20;99.90;;;;;;2616803;54;20150;-77
2022/11/10 01:25:38;;;;;;;13.37;4.50;;;10.20;99.90;;;;;;2615800;54;20287;-78
2022/11/10 01:31:26;;;;;;;7.03;3.90;;;10.30;99.90;;;;;;2616570;54;20681;-77
2022/11/10 01:37:13;;;;;;;5.87;4.00;;;10.30;99.90;;;;;;2615882;39;20537;-78
2022/11/10 01:43:01;;;;;;;5.20;3.43;;;10.20;99.90;;;;;;2614502;54;20163;-78
2022/11/10 01:55:03;;;;;;;7.70;3.90;;;10.10;99.90;;;;;;2615872;39;20668;-79
2022/11/10 02:00:51;;;;;;;13.53;4.90;;;10.10;99.90;;;;;;2613970;54;20395;-78
2022/11/10 02:06:41;;;;;;;9.73;3.67;;;10.10;99.90;;;;;;2616368;54;20143;-78
2022/11/10 02:12:36;;;;;;;6.67;3.70;;;10.10;99.90;;;;;;2616683;54;20423;-77
2022/11/10 02:18:24;;;;;;;10.50;3.50;;;10.20;99.90;;;;;;2616677;54;20378;-78
2022/11/10 02:24:12;;;;;;;13.60;4.57;;;10.20;99.90;;;;;;2616086;54;20182;-77
2022/11/10 02:30:00;;;;;;;8.50;4.20;;;10.20;99.90;;;;;;2616433;54;20398;-75
2022/11/10 02:35:48;;;;;;;3.90;3.23;;;10.30;99.90;;;;;;2615782;39;21169;-75
2022/11/10 02:41:36;;;;;;;11.87;3.90;;;10.20;99.90;;;;;;2614770;54;20126;-77
2022/11/10 02:47:24;;;;;;;9.47;3.80;;;10.10;99.90;;;;;;2615810;54;20675;-75
2022/11/10 02:53:12;;;;;;;11.27;3.93;;;10.00;99.90;;;;;;2616067;54;20159;-77
2022/11/10 02:59:00;;;;;;;9.60;3.80;;;10.10;99.90;;;;;;2616701;54;20118;-75
2022/11/10 03:04:48;;;;;;;12.90;3.40;;;10.10;99.90;;;;;;2617174;54;20452;-78
2022/11/10 03:10:36;;;;;;;7.57;4.60;;;10.20;99.90;;;;;;2625348;54;20147;-79
2022/11/10 03:16:24;;;;;;;8.90;4.50;;;10.20;99.90;;;;;;2623171;54;20138;-80
2022/11/10 03:26:30;;;;;;;14.97;4.90;;;10.20;99.90;;;;;;2616026;54;20436;-80
2022/11/10 03:28:55;;;;;;;21.10;5.20;;;10.10;99.90;;;;;;2615616;46;20489;-80
2022/11/10 03:31:21;;;;;;;11.10;4.73;;;10.10;99.90;;;;;;2615838;54;20436;-79
2022/11/10 03:37:09;;;;;;;11.80;4.50;;;10.10;99.90;;;;;;2615719;54;20130;-79
2022/11/10 03:42:56;;;;;;;8.80;4.40;;;10.10;99.90;;;;;;2619756;54;20170;-79
2022/11/10 03:48:44;;;;;;;20.10;4.67;;;10.10;99.90;;;;;;2618750;54;20134;-77
2022/11/10 03:54:32;;;;;;;8.37;3.63;;;10.10;99.90;;;;;;2616044;54;20395;-75
2022/11/10 04:00:21;;;;;;;5.90;3.87;;;10.10;99.90;;;;;;2615791;54;20138;-74
2022/11/10 04:18:25;;;;;;;11.70;4.40;;;10.00;99.90;;;;;;2615331;54;20351;-77
2022/11/10 04:24:13;;;;;;;10.73;4.00;;;10.10;99.90;;;;;;2614494;54;20426;-75
2022/11/10 04:30:01;;;;;;;6.80;3.93;;;10.00;99.90;;;;;;2617386;54;20122;-79
2022/11/10 04:35:49;;;;;;;8.50;3.90;;;10.00;99.90;;;;;;2616274;54;20134;-79
2022/11/10 04:41:37;;;;;;;11.80;4.33;;;9.90;99.90;;;;;;2617186;54;20133;-80
2022/11/10 04:47:25;;;;;;;10.20;3.53;;;9.90;99.90;;;;;;2616080;54;20138;-80
2022/11/10 04:53:12;;;;;;;6.83;3.67;;;9.90;99.90;;;;;;2616725;54;21136;-79
2022/11/10 04:59:00;;;;;;;9.23;5.33;;;9.90;99.90;;;;;;2615617;39;20626;-80
2022/11/10 05:04:47;;;;;;;14.33;5.47;;;9.90;99.90;;;;;;2616876;54;20243;-79
2022/11/10 05:10:36;;;;;;;11.60;4.37;;;9.90;99.90;;;;;;2617613;39;20544;-79
2022/11/10 05:16:24;;;;;;;5.70;3.37;;;9.80;99.90;;;;;;2615490;54;20424;-76
2022/11/10 05:26:30;;;;;;;7.73;3.77;;;9.60;99.90;;;;;;2615175;39;20788;-76
2022/11/10 05:32:17;;;;;;;18.27;3.73;;;9.80;99.90;;;;;;2615657;54;20426;-75
2022/11/10 05:38:05;;;;;;;12.63;4.83;;;9.80;99.90;;;;;;2616286;54;20170;-76
2022/11/10 05:43:52;;;;;;;8.00;3.87;;;9.90;99.90;;;;;;2619073;31;20616;-78
2022/11/10 05:49:40;;;;;;;7.60;4.30;;;9.90;99.90;;;;;;2618550;54;20122;-77
2022/11/10 05:55:28;;;;;;;7.73;3.90;;;9.90;99.90;;;;;;2617940;54;20134;-78
2022/11/10 06:01:16;;;;;;;10.67;3.63;;;9.70;99.90;;;;;;2616686;54;20138;-78
2022/11/10 06:07:04;;;;;;;9.47;4.13;;;9.70;99.90;;;;;;2616991;54;20146;-77
2022/11/10 06:12:52;;;;;;;10.23;3.70;;;9.80;99.90;;;;;;2617126;54;20230;-80
2022/11/10 06:18:40;;;;;;;10.63;3.87;;;9.60;99.90;;;;;;2615495;54;20403;-79
2022/11/10 06:21:57;;;;;;;20.43;3.70;;;9.70;99.90;;;;;;2612052;46;20403;-79
2022/11/10 06:24:23;;;;;;;11.20;3.67;;;9.50;99.90;;;;;;2615026;47;20175;-79
2022/11/10 06:27:09;;;;;;;9.80;3.93;;;9.60;99.90;;;;;;2613082;48;20426;-78
2022/11/10 06:29:34;;;;;;;15.57;4.70;;;9.50;99.90;;;;;;2614730;47;20174;-77
2022/11/10 06:35:23;;;;;;;11.30;4.03;;;9.50;99.90;;;;;;2613273;54;20134;-79
2022/11/10 06:41:11;;;;;;;21.63;4.23;;;9.50;99.90;;;;;;2614967;54;20391;-79
2022/11/10 06:46:59;;;;;;;11.70;3.90;;;9.60;99.90;;;;;;2615747;54;20171;-78
2022/11/10 06:52:53;;;;;;;15.10;4.53;;;9.60;99.90;;;;;;2616463;54;20258;-78
2022/11/10 06:58:41;;;;;;;6.10;2.90;;;9.70;99.90;;;;;;2615575;54;21065;-80
2022/11/10 07:04:29;;;;;;;9.87;4.17;;;9.80;99.90;;;;;;2616512;39;20593;-80
2022/11/10 07:10:17;;;;;;;15.30;4.17;;;9.70;99.90;;;;;;2616064;54;20191;-80
2022/11/10 07:12:42;;;;;;;10.13;4.17;;;9.60;99.90;;;;;;2614048;47;20439;-81
2022/11/10 07:15:08;;;;;;;9.87;4.30;;;9.80;99.90;;;;;;2613845;54;20166;-79
2022/11/10 07:20:56;;;;;;;10.83;4.50;;;9.80;99.90;;;;;;2616187;54;20815;-77
2022/11/10 07:24:01;;;;;;;13.50;5.37;;;10.00;99.90;;;;;;2613958;46;20526;-78
2022/11/10 07:26:27;;;;;;;14.07;4.10;;;10.00;99.90;;;;;;2614873;54;20147;-79
2022/11/10 07:32:16;;;;;;;9.63;3.93;;;9.90;99.90;;;;;;2615634;54;20431;-78
2022/11/10 07:38:10;;;;;;;11.60;4.10;;;10.00;99.90;;;;;;2617526;54;20390;-79
2022/11/10 07:43:59;;;;;;;12.77;4.10;;;10.10;99.90;;;;;;2616690;54;20370;-79
2022/11/10 07:49:47;;;;;;;10.63;4.43;;;10.30;99.90;;;;;;2617427;54;20395;-76
2022/11/10 07:55:38;;;;;;;9.00;4.77;;;10.60;99.90;;;;;;2616769;54;20234;-77
2022/11/10 08:01:26;;;;;;;17.43;4.43;;;11.00;99.90;;;;;;2615335;54;20920;-75
2022/11/10 08:07:13;;;;;;;15.33;4.93;;;13.10;99.90;;;;;;2613942;54;20130;-77
2022/11/10 08:09:39;;;;;;;13.50;5.07;;;13.60;99.90;;;;;;2630409;36;20463;-78
2022/11/10 08:12:05;;;;;;;17.50;4.70;;;14.10;99.90;;;;;;2613087;39;20791;-78
2022/11/10 08:18:05;;;;;;;10.30;5.07;;;14.20;99.90;;;;;;2612667;54;20150;-79
2022/11/10 08:27:15;;;;;;;15.07;5.87;;;13.20;99.90;;;;;;2615832;54;20407;-78
2022/11/10 08:33:04;;;;;;;8.97;5.37;;;13.30;99.90;;;;;;2615203;54;20130;-77
2022/11/10 08:38:52;;;;;;;7.63;4.43;;;12.90;99.90;;;;;;2614954;54;20399;-77
2022/11/10 08:41:56;;;;;;;15.67;6.07;;;12.40;99.90;;;;;;2614749;47;20436;-78
2022/11/10 08:44:21;;;;;;;6.07;5.03;;;12.40;99.90;;;;;;2614318;47;20174;-79
2022/11/10 08:50:09;;;;;;;9.90;6.17;;;13.80;99.90;;;;;;2614484;54;20137;-79
2022/11/10 08:55:58;;;;;;;14.83;6.97;;;13.40;99.90;;;;;;2614998;54;21303;-79
2022/11/10 09:01:46;;;;;;;8.73;5.90;;;14.50;99.90;;;;;;2616384;54;20641;-79
2022/11/10 09:14:11;;;;;;;18.27;7.93;;;14.60;99.90;;;;;;2613140;54;21014;-78
2022/11/10 09:20:00;;;;;;;11.97;8.27;;;15.40;99.90;;;;;;2611699;54;20552;-79
2022/11/10 09:22:26;;;;;;;14.10;8.23;;;15.60;99.90;;;;;;2614052;54;20386;-79
2022/11/10 09:24:52;;;;;;;8.30;7.47;;;15.80;99.90;;;;;;2618560;39;20859;-79
2022/11/10 09:30:40;;;;;;;9.43;8.10;;;16.70;99.00;;;;;;2614363;39;20551;-76
2022/11/10 09:36:28;;;;;;;13.33;8.50;;;16.20;98.90;;;;;;2613935;54;21026;-75
2022/11/10 09:42:38;;;;;;;11.43;7.90;;;17.30;81.10;;;;;;2613857;54;20152;-76
2022/11/10 09:48:29;;;;;;;9.37;8.53;;;16.30;91.20;;;;;;2616552;54;20452;-79
2022/11/10 10:11:54;;;;;;;14.53;8.90;;;17.40;79.30;;;;;;2614344;54;20420;-80
2022/11/10 10:17:49;;;;;;;13.60;9.43;;;17.40;72.70;;;;;;2614740;54;20398;-77
2022/11/10 10:27:04;;;;;;;10.60;8.03;;;16.90;76.00;;;;;;2614621;54;20444;-78
2022/11/10 10:45:41;;;;;;;16.27;10.43;;;17.90;62.40;;;;;;2619309;54;20407;-80
2022/11/10 10:51:29;;;;;;;11.10;9.90;;;17.90;60.40;;;;;;2618733;54;20427;-80
2022/11/10 10:57:27;;;;;;;11.97;10.67;;;18.70;56.30;;;;;;2618155;54;20382;-79
2022/11/10 11:03:28;;;;;;;11.80;9.17;;;18.90;53.70;;;;;;2618059;54;20456;-79
2022/11/10 11:09:21;;;;;;;13.23;8.87;;;18.50;55.80;;;;;;2618216;54;20395;-80
2022/11/10 11:19:43;;;;;;;13.67;9.50;;;17.80;61.90;;;;;;2616632;54;20387;-80
2022/11/10 11:32:21;;;;;;;15.77;10.40;;;18.70;60.60;;;;;;2616910;54;20375;-81
2022/11/10 11:38:23;;;;;;;14.67;9.50;;;18.20;57.80;;;;;;2615575;54;20518;-80
2022/11/10 12:01:29;;;;;;;9.00;8.10;;;17.90;57.70;;;;;;2615252;54;20391;-78
2022/11/10 12:20:32;;;;;;;9.17;8.37;;;18.70;47.00;;;;;;2613717;54;20414;-77
2022/11/10 12:29:43;;;;;;;16.37;9.27;;;19.10;42.60;;;;;;2612870;46;20403;-76
2022/11/10 12:35:34;;;;;;;9.60;8.70;;;18.70;44.00;;;;;;2612617;54;20394;-78
2022/11/10 12:41:26;;;;;;;9.40;8.53;;;19.80;41.80;;;;;;2613696;54;20394;-76
2022/11/10 12:47:18;;;;;;;9.57;8.67;;;19.90;36.60;;;;;;2610962;54;20387;-76
2022/11/10 12:53:12;;;;;;;10.23;9.37;;;20.50;37.80;;;;;;2615070;54;20965;-76
2022/11/10 13:03:33;;;;;;;9.00;8.30;;;19.50;33.60;;;;;;2615757;54;20429;-79
2022/11/10 13:09:30;;;;;;;9.33;8.53;;;20.30;34.30;;;;;;2616491;54;20376;-78
2022/11/10 13:22:09;;;;;;;10.83;9.90;;;19.60;33.80;;;;;;2617912;54;20395;-81
2022/11/10 13:27:57;;;;;;;9.50;8.60;;;19.90;31.40;;;;;;2617610;54;20445;-81
2022/11/10 13:40:31;;;;;;;10.53;9.53;;;19.50;31.80;;;;;;2616856;54;20415;-81
2022/11/10 13:52:50;;;;;;;12.27;8.80;;;19.90;30.20;;;;;;2616775;54;20395;-81
2022/11/10 13:58:42;;;;;;;9.63;8.83;;;18.60;31.00;;;;;;2617455;54;20407;-80
2022/11/10 14:15:29;;;;;;;8.83;8.33;;;19.10;31.70;;;;;;2617251;54;20431;-82
2022/11/10 14:21:25;;;;;;;9.20;8.30;;;18.30;34.80;;;;;;2618947;54;20396;-81
2022/11/10 14:27:19;;;;;;;9.17;8.57;;;18.60;34.50;;;;;;2617422;54;20463;-80
2022/11/10 14:33:13;;;;;;;14.77;9.13;;;17.90;37.00;;;;;;2617683;54;20395;-81
2022/11/10 14:35:47;;;;;;;9.47;8.50;;;18.20;36.10;;;;;;2615618;54;20430;-80
2022/11/10 14:51:29;;;;;;;8.60;8.07;;;15.80;46.30;;;;;;2616366;54;20415;-80
2022/11/10 14:57:18;;;;;;;8.90;8.30;;;15.60;51.30;;;;;;2616489;54;20127;-80
2022/11/10 15:03:07;;;;;;;9.70;8.90;;;15.30;56.10;;;;;;2616631;39;20798;-80
2022/11/10 15:08:55;;;;;;;8.40;7.80;;;14.90;61.60;;;;;;2614204;54;20419;-76
2022/11/10 15:14:45;;;;;;;9.73;9.03;;;14.70;70.20;;;;;;2613348;54;20139;-76
2022/11/10 15:20:37;;;;;;;10.23;8.33;;;14.60;72.10;;;;;;2615529;54;20395;-78
2022/11/10 15:25:55;;;;;;;9.80;9.20;;;14.50;75.60;;;;;;2616363;54;20423;-76
2022/11/10 15:31:45;;;;;;;9.43;8.53;;;14.20;83.60;;;;;;2616593;54;20422;-77
2022/11/10 15:37:33;;;;;;;15.27;9.50;;;14.00;91.00;;;;;;2616456;54;20403;-76
2022/11/10 15:43:21;;;;;;;9.43;8.60;;;13.90;93.50;;;;;;2616129;31;20865;-76
2022/11/10 15:55:44;;;;;;;8.93;8.10;;;13.70;96.20;;;;;;2615857;54;20383;-77
2022/11/10 16:01:32;;;;;;;9.60;8.13;;;13.50;99.50;;;;;;2616669;54;20387;-77
2022/11/10 16:07:20;;;;;;;9.63;8.67;;;13.40;99.90;;;;;;2614745;54;20387;-77
2022/11/10 16:13:11;;;;;;;9.53;8.73;;;13.20;99.90;;;;;;2616001;54;20443;-80
2022/11/10 16:18:59;;;;;;;9.13;8.33;;;13.00;99.90;;;;;;2615652;54;20390;-80
2022/11/10 16:24:47;;;;;;;9.50;8.90;;;13.00;99.90;;;;;;2615649;54;20131;-79
2022/11/10 16:30:34;;;;;;;9.73;8.83;;;12.90;99.90;;;;;;2614428;54;20122;-77
2022/11/10 16:36:28;;;;;;;20.33;7.97;;;12.60;99.90;;;;;;2614374;54;20231;-76
2022/11/10 16:42:16;;;;;;;8.50;7.80;;;12.60;99.90;;;;;;2614109;54;20395;-75
2022/11/10 16:48:06;;;;;;;8.57;7.83;;;12.60;99.90;;;;;;2614936;54;20134;-77
2022/11/10 16:53:54;;;;;;;9.40;7.90;;;12.50;99.90;;;;;;2614901;54;20395;-78
2022/11/10 16:59:44;;;;;;;9.37;8.07;;;12.40;99.90;;;;;;2615312;54;20674;-76
2022/11/10 17:05:34;;;;;;;7.93;7.33;;;12.30;99.90;;;;;;2614568;54;20411;-80
2022/11/10 17:11:21;;;;;;;8.63;7.70;;;12.30;99.90;;;;;;2616875;54;20407;-80
2022/11/10 17:17:15;;;;;;;7.33;6.73;;;12.20;99.90;;;;;;2617453;54;20122;-79
2022/11/10 17:23:05;;;;;;;8.67;7.80;;;12.40;99.90;;;;;;2614669;54;20388;-81
2022/11/10 17:28:53;;;;;;;8.07;7.40;;;12.30;99.90;;;;;;2616247;54;20427;-80
2022/11/10 17:34:40;;;;;;;9.43;7.83;;;12.40;99.90;;;;;;2617032;54;20114;-79
2022/11/10 17:40:30;;;;;;;11.00;8.07;;;12.20;99.90;;;;;;2615299;54;20157;-79
2022/11/10 17:46:17;;;;;;;14.27;9.00;;;12.20;99.90;;;;;;2614495;54;20407;-79
2022/11/10 17:52:04;;;;;;;8.97;8.13;;;12.10;99.90;;;;;;2614479;54;20258;-80
2022/11/10 17:57:52;;;;;;;7.97;7.37;;;12.20;99.90;;;;;;2614133;54;20133;-81
2022/11/10 18:03:41;;;;;;;9.40;7.10;;;12.30;99.90;;;;;;2615410;54;20394;-80
2022/11/10 18:09:30;;;;;;;7.43;6.93;;;12.30;99.90;;;;;;2615894;54;20383;-79
2022/11/10 18:15:17;;;;;;;8.50;7.60;;;12.20;99.90;;;;;;2615583;54;20150;-81
2022/11/10 18:21:06;;;;;;;8.47;6.90;;;12.00;99.90;;;;;;2614704;31;20655;-80
2022/11/10 18:30:18;;;;;;;8.97;8.43;;;12.10;99.90;;;;;;2615903;54;20443;-79
2022/11/10 18:36:07;;;;;;;9.00;8.20;;;11.90;99.90;;;;;;2616289;54;20403;-79
2022/11/10 18:41:55;;;;;;;13.87;9.43;;;11.80;99.90;;;;;;2615310;54;20390;-79
2022/11/10 18:47:42;;;;;;;8.60;7.80;;;11.60;99.90;;;;;;2616957;54;20134;-79
2022/11/10 18:53:32;;;;;;;8.27;7.43;;;11.40;99.90;;;;;;2617709;54;20123;-78
2022/11/10 18:59:20;;;;;;;8.70;7.97;;;11.30;99.90;;;;;;2616117;54;20459;-79
2022/11/10 19:05:08;;;;;;;8.40;7.43;;;11.30;99.90;;;;;;2617152;54;20147;-79
2022/11/10 19:10:55;;;;;;;14.27;9.53;;;11.30;99.90;;;;;;2617327;54;20146;-79
2022/11/10 19:16:44;;;;;;;9.47;7.63;;;11.30;99.90;;;;;;2618591;54;20135;-79
2022/11/10 19:22:34;;;;;;;8.73;7.80;;;11.30;99.90;;;;;;2618352;54;20395;-78
2022/11/10 19:25:49;;;;;;;12.60;8.00;;;11.30;99.90;;;;;;2618396;54;20410;-78
2022/11/10 19:28:18;;;;;;;11.20;8.30;;;11.20;99.90;;;;;;2618072;47;20454;-79
2022/11/10 19:34:06;;;;;;;9.80;7.50;;;11.40;99.90;;;;;;2617674;54;20125;-79
2022/11/10 19:39:54;;;;;;;12.03;7.37;;;11.30;99.90;;;;;;2618260;54;20141;-81
2022/11/10 19:45:42;;;;;;;9.53;7.90;;;11.40;99.90;;;;;;2617375;54;20973;-80
2022/11/10 19:51:29;;;;;;;11.83;8.37;;;11.30;99.90;;;;;;2614198;31;20609;-81
2022/11/10 19:57:17;;;;;;;8.50;7.60;;;11.50;99.90;;;;;;2615982;54;20789;-80
2022/11/10 20:03:10;;;;;;;9.60;7.80;;;11.30;99.90;;;;;;2614756;54;20134;-77
2022/11/10 20:08:58;;;;;;;13.10;8.60;;;11.20;99.90;;;;;;2615795;54;20508;-77
2022/11/10 20:14:46;;;;;;;8.37;7.57;;;11.10;99.90;;;;;;2614747;54;20414;-76
2022/11/10 20:20:37;;;;;;;9.10;8.13;;;11.00;99.90;;;;;;2614240;54;20164;-77
2022/11/10 20:30:22;;;;;;;10.90;7.77;;;11.00;99.90;;;;;;2614545;39;20773;-77
2022/11/10 20:36:12;;;;;;;12.13;6.70;;;10.80;99.90;;;;;;2615842;39;20865;-77
2022/11/10 20:41:59;;;;;;;8.70;6.80;;;10.80;99.90;;;;;;2616338;54;20383;-79
2022/11/10 20:47:47;;;;;;;9.07;8.17;;;10.80;99.90;;;;;;2617128;54;20153;-78
2022/11/10 20:53:35;;;;;;;14.70;7.00;;;10.70;99.90;;;;;;2616033;54;20658;-80
2022/11/10 20:59:23;;;;;;;14.63;8.10;;;10.60;99.90;;;;;;2616951;54;20926;-80
2022/11/10 21:05:11;;;;;;;7.27;6.70;;;10.50;99.90;;;;;;2616092;54;20126;-75
2022/11/10 21:11:04;;;;;;;8.07;7.27;;;10.50;99.90;;;;;;2617871;54;20134;-79
2022/11/10 21:16:55;;;;;;;9.43;8.53;;;10.30;99.90;;;;;;2617474;54;20399;-80
2022/11/10 21:22:43;;;;;;;8.30;7.70;;;10.40;99.90;;;;;;2617284;31;20867;-78
2022/11/10 21:25:48;;;;;;;13.23;7.30;;;10.20;99.90;;;;;;2616745;47;20400;-78
2022/11/10 21:28:16;;;;;;;9.43;8.53;;;10.20;99.90;;;;;;2618510;54;20161;-79
2022/11/10 21:34:05;;;;;;;7.17;6.57;;;10.20;99.90;;;;;;2616942;54;20370;-78
2022/11/10 21:39:53;;;;;;;7.47;6.77;;;10.50;99.90;;;;;;2616628;54;21082;-78
2022/11/10 21:45:40;;;;;;;7.90;7.30;;;10.40;99.90;;;;;;2617703;54;20122;-78
2022/11/10 21:51:28;;;;;;;6.70;6.20;;;10.40;99.90;;;;;;2617102;54;20130;-78
2022/11/10 21:57:16;;;;;;;8.50;7.53;;;10.60;99.90;;;;;;2616426;54;21131;-75
2022/11/10 22:03:04;;;;;;;10.73;7.80;;;10.60;99.90;;;;;;2615967;54;20235;-77
2022/11/10 22:08:52;;;;;;;8.60;7.87;;;10.50;99.90;;;;;;2614630;54;20399;-78
2022/11/10 22:20:45;;;;;;;10.50;7.80;;;10.40;99.90;;;;;;2613158;54;20387;-78
2022/11/10 22:30:23;;;;;;;7.33;6.73;;;10.30;99.90;;;;;;2615555;54;20391;-78
2022/11/10 22:36:15;;;;;;;8.73;7.23;;;10.20;99.90;;;;;;2615955;54;20566;-78
2022/11/10 22:54:18;;;;;;;8.00;7.20;;;10.30;99.90;;;;;;2615726;39;20550;-79
2022/11/10 23:00:08;;;;;;;10.93;7.83;;;10.30;99.90;;;;;;2615047;54;20422;-79
2022/11/10 23:05:56;;;;;;;11.83;7.20;;;10.20;99.90;;;;;;2614968;54;21002;-80
2022/11/10 23:11:43;;;;;;;8.07;7.20;;;10.10;99.90;;;;;;2616500;54;20137;-79
2022/11/10 23:17:31;;;;;;;8.60;7.90;;;10.10;99.90;;;;;;2613724;54;20122;-78
2022/11/10 23:23:19;;;;;;;7.73;7.03;;;10.00;99.90;;;;;;2612874;39;20869;-78
2022/11/10 23:25:56;;;;;;;8.30;7.57;;;9.90;99.90;;;;;;2611722;54;20400;-79
2022/11/10 23:28:22;;;;;;;8.90;8.00;;;10.00;99.90;;;;;;2614297;47;20181;-79
2022/11/10 23:34:10;;;;;;;7.90;7.20;;;9.60;99.90;;;;;;2614655;54;20126;-81
2022/11/10 23:39:57;;;;;;;8.23;6.53;;;9.70;99.90;;;;;;2615787;54;20865;-79
2022/11/10 23:45:49;;;;;;;9.17;6.80;;;9.90;99.90;;;;;;2616034;54;20142;-79
2022/11/10 23:51:37;;;;;;;8.00;7.30;;;9.90;99.90;;;;;;2615706;54;20423;-79
2022/11/10 23:57:25;;;;;;;8.17;7.00;;;9.60;99.90;;;;;;2613985;54;20272;-80
